createdAt,value
2022-11-30T00:01:10.795Z,16.27
2022-11-30T00:03:37.914Z,15.97
2022-11-30T00:06:10.835Z,16.60
2022-11-30T00:08:37.863Z,16.40
2022-11-30T00:11:12.886Z,16.10
2022-11-30T00:13:39.997Z,17.80
2022-11-30T00:16:07.375Z,16.70
2022-11-30T00:18:34.447Z,17.27
2022-11-30T00:21:02.425Z,17.37
2022-11-30T00:23:33.881Z,17.40
2022-11-30T00:26:05.135Z,18.50
2022-11-30T00:28:32.761Z,16.73
2022-11-30T00:31:12.276Z,16.47
2022-11-30T00:33:39.860Z,17.43
2022-11-30T00:36:16.293Z,17.53
2022-11-30T00:38:43.511Z,15.40
2022-11-30T00:41:10.990Z,16.87
2022-11-30T00:43:37.777Z,17.23
2022-11-30T00:46:04.887Z,16.80
2022-11-30T00:48:31.736Z,16.30
2022-11-30T00:50:58.497Z,16.53
2022-11-30T00:53:25.231Z,16.10
2022-11-30T00:55:51.983Z,17.73
2022-11-30T00:58:19.689Z,16.23
2022-11-30T01:00:46.841Z,14.53
2022-11-30T01:03:13.994Z,14.80
2022-11-30T01:05:42.086Z,18.20
2022-11-30T01:08:10.345Z,15.67
2022-11-30T01:10:38.874Z,16.73
2022-11-30T01:13:06.690Z,16.13
2022-11-30T01:15:38.223Z,17.17
2022-11-30T01:18:05.698Z,16.50
2022-11-30T01:20:32.489Z,14.97
2022-11-30T01:22:59.223Z,16.10
2022-11-30T01:25:26.062Z,16.07
2022-11-30T01:27:52.812Z,14.07
2022-11-30T01:30:19.562Z,15.57
2022-11-30T01:32:46.332Z,16.73
2022-11-30T01:35:16.019Z,15.03
2022-11-30T01:37:42.765Z,15.60
2022-11-30T01:40:11.153Z,16.33
2022-11-30T01:42:38.058Z,15.70
2022-11-30T01:45:06.021Z,16.30
2022-11-30T01:47:41.059Z,17.87
2022-11-30T01:50:23.706Z,18.97
2022-11-30T01:52:56.413Z,19.80
2022-11-30T01:55:42.390Z,17.80
2022-11-30T01:58:30.531Z,20.40
2022-11-30T02:00:57.320Z,17.47
2022-11-30T02:03:35.390Z,21.90
2022-11-30T02:06:02.126Z,20.67
2022-11-30T02:08:30.904Z,17.77
2022-11-30T02:11:05.273Z,19.60
2022-11-30T02:13:51.147Z,19.20
2022-11-30T02:16:40.918Z,18.90
2022-11-30T02:19:13.698Z,19.00
2022-11-30T02:22:12.863Z,20.77
2022-11-30T02:25:07.637Z,21.17
2022-11-30T02:28:16.872Z,22.03
2022-11-30T02:30:49.474Z,24.80
2022-11-30T02:33:20.353Z,24.53
2022-11-30T02:35:55.127Z,24.87
2022-11-30T02:38:24.304Z,25.45
2022-11-30T02:40:51.370Z,25.90
2022-11-30T02:43:21.448Z,27.67
2022-11-30T02:45:59.614Z,26.63
2022-11-30T02:48:35.520Z,26.83
2022-11-30T02:51:04.180Z,25.58
2022-11-30T02:53:31.106Z,27.80
2022-11-30T02:55:57.986Z,26.70
2022-11-30T02:58:24.764Z,25.40
2022-11-30T03:00:51.435Z,25.00
2022-11-30T03:03:18.179Z,28.10
2022-11-30T03:05:44.895Z,25.10
2022-11-30T03:08:11.579Z,23.60
2022-11-30T03:10:38.374Z,26.07
2022-11-30T03:13:05.185Z,25.42
2022-11-30T03:15:32.112Z,26.42
2022-11-30T03:18:02.203Z,25.73
2022-11-30T03:20:28.903Z,26.10
2022-11-30T03:22:58.790Z,27.77
2022-11-30T03:25:25.507Z,25.30
2022-11-30T03:27:52.273Z,27.27
2022-11-30T03:30:19.141Z,28.83
2022-11-30T03:32:45.882Z,29.90
2022-11-30T03:35:12.654Z,30.35
2022-11-30T03:37:39.329Z,29.25
2022-11-30T03:40:06.794Z,29.58
2022-11-30T03:42:33.460Z,31.10
2022-11-30T03:45:00.216Z,29.00
2022-11-30T03:47:26.974Z,29.57
2022-11-30T03:49:53.678Z,30.30
2022-11-30T03:52:20.437Z,28.60
2022-11-30T03:54:47.413Z,27.45
2022-11-30T03:57:14.281Z,29.17
2022-11-30T03:59:40.993Z,26.33
2022-11-30T04:02:07.783Z,29.48
2022-11-30T04:04:34.522Z,27.70
2022-11-30T04:07:01.286Z,27.00
2022-11-30T04:09:28.043Z,25.83
2022-11-30T04:11:54.714Z,26.40
2022-11-30T04:14:21.392Z,28.23
2022-11-30T04:16:48.145Z,25.58
2022-11-30T04:19:14.909Z,28.42
2022-11-30T04:21:41.585Z,28.90
2022-11-30T04:24:08.771Z,26.95
2022-11-30T04:26:35.540Z,27.37
2022-11-30T04:29:04.611Z,26.77
2022-11-30T04:31:31.610Z,25.65
2022-11-30T04:33:58.396Z,27.02
2022-11-30T04:36:25.169Z,26.30
2022-11-30T04:38:51.870Z,26.93
2022-11-30T04:41:18.618Z,25.70
2022-11-30T04:43:45.413Z,27.03
2022-11-30T04:46:12.242Z,27.00
2022-11-30T04:48:39.000Z,24.87
2022-11-30T04:51:08.126Z,24.30
2022-11-30T04:53:36.916Z,25.23
2022-11-30T04:56:08.965Z,25.60
2022-11-30T04:58:36.129Z,25.35
2022-11-30T05:01:03.074Z,25.17
2022-11-30T05:03:29.807Z,24.27
2022-11-30T05:05:56.673Z,24.83
2022-11-30T05:08:23.406Z,26.27
2022-11-30T05:10:54.491Z,25.10
2022-11-30T05:13:23.003Z,23.07
2022-11-30T05:15:50.078Z,23.48
2022-11-30T05:18:17.354Z,22.87
2022-11-30T05:20:48.526Z,23.50
2022-11-30T05:23:16.582Z,23.05
2022-11-30T05:25:44.022Z,22.20
2022-11-30T05:28:11.397Z,22.17
2022-11-30T05:30:39.697Z,21.85
2022-11-30T05:33:06.865Z,21.43
2022-11-30T05:35:34.174Z,22.33
2022-11-30T05:38:00.945Z,24.50
2022-11-30T05:40:28.734Z,21.33
2022-11-30T05:43:00.092Z,21.63
2022-11-30T05:45:27.242Z,23.45
2022-11-30T05:47:53.997Z,25.23
2022-11-30T05:50:21.086Z,23.70
2022-11-30T05:52:47.789Z,23.37
2022-11-30T05:55:14.632Z,23.20
2022-11-30T05:57:41.399Z,22.83
2022-11-30T06:00:09.514Z,25.50
2022-11-30T06:02:36.419Z,23.52
2022-11-30T06:05:03.429Z,24.97
2022-11-30T06:07:30.352Z,25.70
2022-11-30T06:09:57.343Z,24.77
2022-11-30T06:12:24.141Z,24.90
2022-11-30T06:14:51.164Z,24.63
2022-11-30T06:17:17.858Z,24.30
2022-11-30T06:19:44.540Z,22.67
2022-11-30T06:22:11.335Z,23.80
2022-11-30T06:24:38.022Z,24.00
2022-11-30T06:27:04.814Z,23.97
2022-11-30T06:29:31.534Z,22.08
2022-11-30T06:31:58.383Z,22.17
2022-11-30T06:34:25.242Z,25.00
2022-11-30T06:36:51.955Z,21.83
2022-11-30T06:39:31.398Z,23.83
2022-11-30T06:42:05.473Z,22.27
2022-11-30T06:44:32.311Z,23.20
2022-11-30T06:46:59.060Z,23.37
2022-11-30T06:49:25.808Z,21.80
2022-11-30T06:51:52.665Z,23.08
2022-11-30T06:54:19.399Z,23.63
2022-11-30T06:56:46.245Z,21.80
2022-11-30T06:59:13.260Z,23.35
2022-11-30T07:01:42.526Z,22.90
2022-11-30T07:04:09.450Z,22.65
2022-11-30T07:06:36.853Z,24.10
2022-11-30T07:09:03.732Z,23.55
2022-11-30T07:11:31.913Z,24.80
2022-11-30T07:13:58.635Z,23.77
2022-11-30T07:16:25.448Z,25.10
2022-11-30T07:18:52.250Z,22.98
2022-11-30T07:21:19.055Z,23.67
2022-11-30T07:24:06.446Z,23.87
2022-11-30T07:26:33.398Z,25.88
2022-11-30T07:29:00.214Z,26.02
2022-11-30T07:31:33.663Z,53.70
2022-11-30T07:34:06.928Z,40.22
2022-11-30T07:36:35.013Z,36.70
2022-11-30T07:39:02.320Z,30.63
2022-11-30T07:41:29.433Z,30.80
2022-11-30T07:43:56.297Z,26.17
2022-11-30T07:46:23.177Z,28.27
2022-11-30T07:48:50.037Z,28.30
2022-11-30T07:51:20.782Z,27.43
2022-11-30T07:53:51.181Z,26.63
2022-11-30T07:56:20.444Z,26.53
2022-11-30T07:58:48.202Z,26.53
2022-11-30T08:01:17.745Z,27.23
2022-11-30T08:03:47.213Z,24.80
2022-11-30T08:06:17.192Z,26.30
2022-11-30T08:08:45.205Z,25.77
2022-11-30T08:11:15.064Z,27.60
2022-11-30T08:13:42.429Z,27.83
2022-11-30T08:16:12.552Z,26.80
2022-11-30T08:18:40.510Z,24.93
2022-11-30T08:21:09.011Z,26.60
2022-11-30T08:23:44.388Z,28.25
2022-11-30T08:26:31.323Z,24.75
2022-11-30T08:28:59.493Z,25.65
2022-11-30T08:31:29.237Z,27.92
2022-11-30T08:33:58.138Z,26.67
2022-11-30T08:36:26.854Z,26.63
2022-11-30T08:38:53.973Z,29.10
2022-11-30T08:41:22.485Z,26.90
2022-11-30T08:43:50.446Z,28.80
2022-11-30T08:49:20.944Z,25.92
2022-11-30T08:54:45.402Z,26.90
2022-11-30T08:57:12.777Z,26.77
2022-11-30T08:59:39.588Z,26.20
2022-11-30T09:02:06.922Z,25.98
2022-11-30T09:04:33.694Z,25.85
2022-11-30T09:07:00.966Z,26.15
2022-11-30T09:09:28.010Z,24.83
2022-11-30T09:11:54.740Z,26.03
2022-11-30T09:14:21.516Z,26.70
2022-11-30T09:16:48.487Z,25.07
2022-11-30T09:19:15.228Z,26.20
2022-11-30T09:21:44.247Z,26.20
2022-11-30T09:24:13.585Z,25.87
2022-11-30T09:26:40.336Z,26.80
2022-11-30T09:29:07.153Z,26.43
2022-11-30T09:31:33.863Z,26.03
2022-11-30T09:34:00.646Z,23.60
2022-11-30T09:36:28.721Z,25.37
2022-11-30T09:38:57.158Z,23.90
2022-11-30T09:41:37.975Z,24.83
2022-11-30T09:44:32.558Z,23.40
2022-11-30T09:47:08.441Z,25.70
2022-11-30T09:49:42.767Z,23.63
2022-11-30T09:52:32.556Z,22.40
2022-11-30T09:55:06.525Z,23.03
2022-11-30T09:57:45.378Z,22.50
2022-11-30T10:00:21.825Z,20.43
2022-11-30T10:02:53.848Z,17.43
2022-11-30T10:05:47.774Z,18.60
2022-11-30T10:08:20.369Z,20.30
2022-11-30T10:11:11.471Z,20.37
2022-11-30T10:14:02.917Z,21.33
2022-11-30T10:17:00.814Z,18.83
2022-11-30T10:19:49.007Z,21.93
2022-11-30T10:22:29.242Z,20.10
2022-11-30T10:25:11.680Z,22.03
2022-11-30T10:28:47.899Z,20.67
2022-11-30T10:31:16.546Z,19.30
2022-11-30T10:33:50.229Z,21.07
2022-11-30T10:36:34.697Z,21.20
2022-11-30T10:39:05.005Z,21.37
2022-11-30T10:41:36.567Z,23.43
2022-11-30T10:44:27.431Z,23.07
2022-11-30T10:47:14.333Z,23.30
2022-11-30T10:49:53.683Z,21.90
2022-11-30T10:52:31.844Z,23.02
2022-11-30T10:55:04.635Z,21.67
2022-11-30T10:57:33.181Z,19.70
2022-11-30T11:00:02.460Z,17.98
2022-11-30T11:02:47.948Z,19.00
2022-11-30T11:05:18.005Z,20.05
2022-11-30T11:07:51.736Z,21.10
2022-11-30T11:10:33.206Z,18.70
2022-11-30T11:13:00.191Z,19.13
2022-11-30T11:15:29.553Z,18.83
2022-11-30T11:18:16.613Z,20.17
2022-11-30T11:20:43.887Z,20.90
2022-11-30T11:23:40.549Z,20.60
2022-11-30T11:26:23.418Z,19.73
2022-11-30T11:28:55.563Z,20.70
2022-11-30T11:31:49.025Z,18.77
2022-11-30T11:34:36.471Z,16.77
2022-11-30T11:37:12.840Z,17.10
2022-11-30T11:39:39.600Z,18.83
2022-11-30T11:42:14.658Z,18.20
2022-11-30T11:44:49.416Z,16.13
2022-11-30T11:47:39.203Z,19.07
2022-11-30T11:51:05.492Z,17.20
2022-11-30T11:53:25.155Z,17.10
2022-11-30T11:56:00.391Z,14.83
2022-11-30T11:58:42.085Z,16.80
2022-11-30T12:01:39.176Z,16.80
2022-11-30T12:04:06.979Z,16.00
2022-11-30T12:06:36.130Z,16.43
2022-11-30T12:09:14.436Z,16.27
2022-11-30T12:11:46.976Z,16.10
2022-11-30T12:14:16.715Z,15.87
2022-11-30T12:17:02.116Z,14.20
2022-11-30T12:20:02.840Z,15.07
2022-11-30T12:23:05.178Z,13.77
2022-11-30T12:26:01.386Z,14.40
2022-11-30T12:29:01.936Z,14.60
2022-11-30T12:31:43.465Z,14.50
2022-11-30T12:34:38.306Z,13.20
2022-11-30T12:37:32.728Z,12.00
2022-11-30T12:40:41.664Z,11.37
2022-11-30T12:43:35.339Z,10.73
2022-11-30T12:46:24.341Z,9.80
2022-11-30T12:49:16.031Z,9.83
2022-11-30T12:51:54.270Z,9.07
2022-11-30T12:54:34.426Z,8.80
2022-11-30T12:57:21.263Z,8.50
2022-11-30T12:59:55.447Z,8.80
2022-11-30T13:02:59.549Z,8.50
2022-11-30T13:05:42.283Z,7.70
2022-11-30T13:08:27.524Z,7.30
2022-11-30T13:11:02.882Z,8.67
2022-11-30T13:13:33.558Z,7.40
2022-11-30T13:16:03.628Z,8.00
2022-11-30T13:18:34.377Z,7.30
2022-11-30T13:21:16.831Z,8.23
2022-11-30T13:24:29.013Z,7.90
2022-11-30T13:27:02.026Z,6.73
2022-11-30T13:29:53.415Z,7.20
2022-11-30T13:32:56.282Z,6.40
2022-11-30T13:35:28.978Z,6.60
2022-11-30T13:38:38.439Z,6.50
2022-11-30T13:41:08.523Z,4.53
2022-11-30T13:43:43.818Z,5.20
2022-11-30T13:46:20.789Z,5.03
2022-11-30T13:48:48.462Z,4.40
2022-11-30T13:51:39.107Z,5.53
2022-11-30T13:54:43.206Z,6.53
2022-11-30T13:57:17.698Z,4.97
2022-11-30T13:59:48.775Z,5.23
2022-11-30T14:02:34.203Z,5.87
2022-11-30T14:05:16.520Z,5.67
2022-11-30T14:07:52.693Z,6.20
2022-11-30T14:10:36.753Z,13.10
2022-11-30T14:13:09.766Z,10.30
2022-11-30T14:15:39.237Z,9.17
2022-11-30T14:18:08.837Z,9.70
2022-11-30T14:21:03.723Z,5.47
2022-11-30T14:23:42.001Z,5.27
2022-11-30T14:26:11.912Z,5.70
2022-11-30T14:29:07.459Z,6.13
2022-11-30T14:31:40.643Z,8.13
2022-11-30T14:34:19.998Z,6.70
2022-11-30T14:36:52.081Z,6.80
2022-11-30T14:39:36.754Z,11.37
2022-11-30T14:42:05.694Z,11.57
2022-11-30T14:44:39.398Z,9.17
2022-11-30T14:47:21.678Z,10.00
2022-11-30T14:49:52.349Z,8.93
2022-11-30T14:52:38.192Z,8.70
2022-11-30T14:55:14.398Z,10.10
2022-11-30T14:57:48.953Z,9.07
2022-11-30T15:00:20.873Z,7.93
2022-11-30T15:02:49.474Z,9.00
2022-11-30T15:05:21.154Z,7.90
2022-11-30T15:07:48.916Z,8.93
2022-11-30T15:10:29.643Z,8.77
2022-11-30T15:12:59.127Z,8.10
2022-11-30T15:15:27.883Z,8.60
2022-11-30T15:17:56.028Z,7.60
2022-11-30T15:20:30.804Z,7.20
2022-11-30T15:22:59.459Z,8.18
2022-11-30T15:25:34.698Z,7.83
2022-11-30T15:28:02.027Z,9.23
2022-11-30T15:30:29.025Z,7.27
2022-11-30T15:32:56.941Z,8.43
2022-11-30T15:35:38.568Z,8.18
2022-11-30T15:38:10.611Z,8.73
2022-11-30T15:40:37.550Z,8.40
2022-11-30T15:43:04.719Z,8.03
2022-11-30T15:45:36.123Z,9.03
2022-11-30T15:48:23.830Z,9.87
2022-11-30T15:50:50.663Z,9.80
2022-11-30T15:53:28.667Z,9.55
2022-11-30T15:56:07.655Z,9.57
2022-11-30T15:58:39.914Z,8.80
2022-11-30T16:01:14.777Z,8.98
2022-11-30T16:03:59.270Z,8.57
2022-11-30T16:06:45.775Z,9.45
2022-11-30T16:09:32.329Z,10.25
2022-11-30T16:12:01.059Z,9.38
2022-11-30T16:14:28.018Z,8.63
2022-11-30T16:16:55.674Z,9.55
2022-11-30T16:19:23.057Z,7.55
2022-11-30T16:21:50.358Z,8.30
2022-11-30T16:24:17.675Z,10.10
2022-11-30T16:26:52.245Z,8.18
2022-11-30T16:29:19.699Z,8.10
2022-11-30T16:31:47.369Z,7.90
2022-11-30T16:34:14.259Z,9.27
2022-11-30T16:36:41.092Z,8.60
2022-11-30T16:39:12.614Z,8.48
2022-11-30T16:41:39.585Z,7.53
2022-11-30T16:44:13.826Z,7.72
2022-11-30T16:46:40.628Z,8.23
2022-11-30T16:49:07.349Z,7.70
2022-11-30T16:51:37.550Z,7.25
2022-11-30T16:54:04.569Z,7.93
2022-11-30T16:56:31.314Z,9.60
2022-11-30T16:58:58.024Z,7.75
2022-11-30T17:01:35.963Z,8.70
2022-11-30T17:04:24.048Z,8.05
2022-11-30T17:06:54.700Z,8.45
2022-11-30T17:09:24.117Z,8.80
2022-11-30T17:11:51.760Z,7.35
2022-11-30T17:14:19.862Z,8.15
2022-11-30T17:16:46.692Z,8.55
2022-11-30T17:19:14.667Z,7.43
2022-11-30T17:21:44.449Z,8.13
2022-11-30T17:24:12.011Z,7.35
2022-11-30T17:26:38.706Z,8.13
2022-11-30T17:29:05.762Z,7.32
2022-11-30T17:31:32.724Z,7.57
2022-11-30T17:33:59.710Z,7.63
2022-11-30T17:36:27.069Z,8.30
2022-11-30T17:38:53.983Z,7.50
2022-11-30T17:41:22.247Z,9.30
2022-11-30T17:43:49.524Z,7.70
2022-11-30T17:46:18.548Z,7.30
2022-11-30T17:48:46.169Z,8.20
2022-11-30T17:51:13.750Z,7.30
2022-11-30T17:53:42.382Z,6.82
2022-11-30T17:56:15.041Z,8.43
2022-11-30T17:58:44.621Z,8.05
2022-11-30T18:01:23.436Z,7.82
2022-11-30T18:03:52.848Z,8.60
2022-11-30T18:06:20.310Z,8.35
2022-11-30T18:08:47.095Z,7.40
2022-11-30T18:11:15.480Z,8.45
2022-11-30T18:13:42.542Z,7.75
2022-11-30T18:16:15.353Z,8.07
2022-11-30T18:18:47.441Z,8.80
2022-11-30T18:21:17.684Z,9.10
2022-11-30T18:23:44.501Z,9.18
2022-11-30T18:26:14.272Z,10.35
2022-11-30T18:28:41.103Z,9.50
2022-11-30T18:31:08.146Z,10.70
2022-11-30T18:33:36.073Z,9.52
2022-11-30T18:36:06.241Z,10.20
2022-11-30T18:38:37.525Z,9.90
2022-11-30T18:41:05.254Z,9.90
2022-11-30T18:43:33.556Z,11.63
2022-11-30T18:46:08.944Z,10.63
2022-11-30T18:48:36.598Z,12.30
2022-11-30T18:51:24.114Z,10.02
2022-11-30T18:53:57.689Z,12.02
2022-11-30T18:56:30.358Z,12.27
2022-11-30T18:58:58.869Z,12.65
2022-11-30T19:01:26.355Z,12.05
2022-11-30T19:03:58.928Z,11.45
2022-11-30T19:06:29.501Z,11.90
2022-11-30T19:08:57.140Z,11.55
2022-11-30T19:11:24.270Z,11.57
2022-11-30T19:13:58.744Z,11.63
2022-11-30T19:16:27.035Z,10.70
2022-11-30T19:18:54.702Z,11.43
2022-11-30T19:21:23.304Z,12.27
2022-11-30T19:23:50.327Z,13.65
2022-11-30T19:26:17.452Z,12.07
2022-11-30T19:28:44.990Z,11.35
2022-11-30T19:31:19.332Z,12.50
2022-11-30T19:33:48.357Z,11.15
2022-11-30T19:36:26.693Z,12.57
2022-11-30T19:38:54.422Z,13.18
2022-11-30T19:41:21.671Z,13.00
2022-11-30T19:43:57.054Z,12.00
2022-11-30T19:46:26.594Z,13.90
2022-11-30T19:49:00.554Z,14.57
2022-11-30T19:51:28.706Z,12.93
2022-11-30T19:53:57.585Z,13.07
2022-11-30T19:56:25.674Z,12.80
2022-11-30T19:58:52.855Z,14.18
2022-11-30T20:01:25.398Z,12.50
2022-11-30T20:03:54.858Z,12.65
2022-11-30T20:06:25.573Z,12.63
2022-11-30T20:08:52.279Z,13.60
2022-11-30T20:11:19.029Z,13.15
2022-11-30T20:13:46.001Z,13.38
2022-11-30T20:16:14.945Z,13.75
2022-11-30T20:18:46.028Z,14.55
2022-11-30T20:21:15.316Z,14.30
2022-11-30T20:23:43.785Z,12.93
2022-11-30T20:26:14.800Z,12.95
2022-11-30T20:28:41.540Z,14.50
2022-11-30T20:31:10.580Z,12.52
2022-11-30T20:33:37.822Z,14.05
2022-11-30T20:36:06.339Z,12.60
2022-11-30T20:38:33.688Z,14.57
2022-11-30T20:41:00.916Z,14.05
2022-11-30T20:43:27.817Z,13.05
2022-11-30T20:45:54.741Z,14.80
2022-11-30T20:48:21.937Z,13.45
2022-11-30T20:51:14.092Z,12.63
2022-11-30T20:53:35.609Z,13.82
2022-11-30T20:56:05.531Z,15.60
2022-11-30T20:58:32.406Z,16.08
2022-11-30T21:01:00.132Z,16.27
2022-11-30T21:03:27.899Z,15.68
2022-11-30T21:05:54.847Z,15.25
2022-11-30T21:08:21.633Z,16.10
2022-11-30T21:10:48.355Z,17.20
2022-11-30T21:13:15.338Z,17.38
2022-11-30T21:15:42.263Z,16.77
2022-11-30T21:18:09.393Z,16.15
2022-11-30T21:20:36.127Z,17.52
2022-11-30T21:23:02.901Z,17.40
2022-11-30T21:25:29.638Z,15.48
2022-11-30T21:27:56.325Z,17.80
2022-11-30T21:30:23.110Z,16.70
2022-11-30T21:32:49.824Z,17.80
2022-11-30T21:35:16.667Z,17.20
2022-11-30T21:37:43.393Z,18.10
2022-11-30T21:40:10.895Z,17.70
2022-11-30T21:42:37.606Z,18.05
2022-11-30T21:45:04.634Z,16.45
2022-11-30T21:47:31.942Z,16.48
2022-11-30T21:49:59.662Z,18.23
2022-11-30T21:52:27.039Z,17.10
2022-11-30T21:54:53.906Z,18.23
2022-11-30T21:57:23.344Z,17.77
2022-11-30T21:59:50.527Z,18.33
2022-11-30T22:02:17.437Z,17.80
2022-11-30T22:04:44.198Z,16.35
2022-11-30T22:07:13.950Z,18.23
2022-11-30T22:09:40.886Z,19.45
2022-11-30T22:12:07.814Z,15.38
2022-11-30T22:14:36.281Z,17.55
2022-11-30T22:17:03.093Z,17.77
2022-11-30T22:19:29.869Z,16.75
2022-11-30T22:21:56.599Z,17.00
2022-11-30T22:24:23.366Z,17.35
2022-11-30T22:26:50.182Z,16.85
2022-11-30T22:29:19.914Z,17.33
2022-11-30T22:31:48.263Z,16.70
2022-11-30T22:34:15.522Z,18.10
2022-11-30T22:36:43.805Z,16.13
2022-11-30T22:39:11.623Z,15.23
2022-11-30T22:41:40.102Z,19.08
2022-11-30T22:44:07.311Z,16.67
2022-11-30T22:46:36.727Z,18.35
2022-11-30T22:49:06.368Z,18.20
2022-11-30T22:51:34.718Z,18.02
2022-11-30T22:54:02.012Z,17.85
2022-11-30T22:56:32.143Z,17.45
2022-11-30T22:59:00.797Z,17.83
2022-11-30T23:01:30.573Z,16.52
2022-11-30T23:04:02.373Z,14.55
2022-11-30T23:06:29.208Z,17.15
2022-11-30T23:08:56.001Z,15.95
2022-11-30T23:11:24.760Z,18.42
2022-11-30T23:13:52.124Z,17.55
2022-11-30T23:16:19.533Z,16.73
2022-11-30T23:18:48.741Z,16.73
2022-11-30T23:21:21.693Z,17.88
2022-11-30T23:23:48.689Z,16.00
2022-11-30T23:26:21.757Z,17.77
2022-11-30T23:28:51.374Z,15.50
2022-11-30T23:31:34.145Z,15.07
2022-11-30T23:34:05.128Z,16.20
2022-11-30T23:36:32.481Z,16.73
2022-11-30T23:39:02.571Z,16.48
2022-11-30T23:41:29.489Z,15.93
2022-11-30T23:43:56.229Z,17.48
2022-11-30T23:46:23.372Z,17.10
2022-11-30T23:48:50.223Z,17.67
2022-11-30T23:51:17.025Z,16.77
2022-11-30T23:53:43.817Z,16.80
2022-11-30T23:56:14.939Z,18.73
2022-11-30T23:58:42.459Z,17.55
